Time;durP1;ratioP1;P1;durP2;ratioP2;P2;SDS_P1;SDS_P2;PMS_P1;PMS_P2;Temp;Humidity;BMP_temperature;BMP_pressure;BME280_temperature;BME280_humidity;BME280_pressure;Samples;Min_cycle;Max_cycle;Signal;HPM_P1;HPM_P2
2021/07/24 00:01:17;;;;;;;1.98;1.40;;;15.20;80.80;;;;;;5098236;28;20024;-56
2021/07/24 00:03:45;;;;;;;2.55;1.35;;;15.20;80.40;;;;;;5102855;28;20035;-55
2021/07/24 00:06:12;;;;;;;2.13;1.52;;;15.30;80.50;;;;;;5081808;28;20529;-54
2021/07/24 00:08:40;;;;;;;1.77;1.63;;;15.30;80.50;;;;;;5107714;28;20107;-57
2021/07/24 00:11:09;;;;;;;2.33;1.67;;;15.40;80.50;;;;;;5103077;28;20441;-54
2021/07/24 00:13:39;;;;;;;2.58;1.77;;;15.50;80.00;;;;;;5101216;28;20016;-56
2021/07/24 00:16:07;;;;;;;3.58;1.95;;;15.60;80.70;;;;;;5107815;28;20034;-56
2021/07/24 00:18:35;;;;;;;2.00;1.10;;;15.70;80.50;;;;;;5102621;28;20040;-52
2021/07/24 00:21:03;;;;;;;2.05;1.40;;;15.90;80.20;;;;;;5104567;28;20118;-53
2021/07/24 00:23:30;;;;;;;1.42;1.27;;;16.10;79.50;;;;;;5102192;28;20027;-52
2021/07/24 00:25:58;;;;;;;5.05;1.77;;;16.50;78.10;;;;;;5099090;28;20395;-54
2021/07/24 00:28:28;;;;;;;2.95;1.42;;;16.60;76.90;;;;;;5102520;28;20551;-51
2021/07/24 00:30:57;;;;;;;3.90;2.28;;;17.00;76.00;;;;;;5078732;28;20050;-55
2021/07/24 00:33:24;;;;;;;1.60;1.42;;;17.20;74.50;;;;;;5102807;28;20027;-53
2021/07/24 00:35:51;;;;;;;1.33;1.20;;;17.50;73.20;;;;;;5098506;28;20040;-58
2021/07/24 00:38:19;;;;;;;3.75;1.88;;;17.90;72.10;;;;;;5100211;28;20039;-53
2021/07/24 00:40:52;;;;;;;1.50;1.40;;;18.10;70.90;;;;;;5109526;28;20024;-58
2021/07/24 00:43:25;;;;;;;2.22;1.42;;;18.30;70.00;;;;;;5110012;28;20027;-62
2021/07/24 00:45:55;;;;;;;1.40;1.05;;;18.50;68.70;;;;;;5110294;28;20023;-57
2021/07/24 00:48:24;;;;;;;5.63;1.55;;;18.60;67.60;;;;;;5092073;28;20019;-55
2021/07/24 00:50:56;;;;;;;1.48;1.00;;;18.60;67.00;;;;;;5103140;28;20024;-57
2021/07/24 00:53:31;;;;;;;1.75;1.27;;;18.60;67.00;;;;;;5087118;28;20132;-58
2021/07/24 00:56:00;;;;;;;1.77;1.10;;;18.60;67.00;;;;;;5105253;28;20107;-58
2021/07/24 00:58:37;;;;;;;1.58;1.05;;;18.60;66.70;;;;;;5105401;28;20041;-61
2021/07/24 01:01:06;;;;;;;3.63;0.77;;;18.80;66.90;;;;;;5104998;28;20043;-59
2021/07/24 01:03:33;;;;;;;1.88;1.40;;;18.90;66.20;;;;;;5105729;28;20051;-58
2021/07/24 01:06:02;;;;;;;7.32;1.27;;;19.00;65.90;;;;;;5108846;28;20026;-57
2021/07/24 01:08:32;;;;;;;1.65;1.10;;;19.00;65.80;;;;;;5109387;28;20028;-60
2021/07/24 01:11:00;;;;;;;1.42;1.00;;;18.90;66.00;;;;;;5109376;28;20023;-58
2021/07/24 01:13:28;;;;;;;1.65;1.02;;;18.90;66.40;;;;;;5108602;28;20037;-59
2021/07/24 01:15:56;;;;;;;1.30;1.02;;;19.00;65.10;;;;;;5109043;28;20024;-58
2021/07/24 01:18:24;;;;;;;2.70;0.90;;;19.00;66.40;;;;;;5109461;28;20035;-61
2021/07/24 01:20:56;;;;;;;4.13;1.20;;;19.10;65.60;;;;;;5108929;28;20023;-60
2021/07/24 01:23:24;;;;;;;1.02;0.90;;;19.20;64.80;;;;;;5109516;28;20027;-55
2021/07/24 01:25:54;;;;;;;1.80;1.13;;;19.20;63.80;;;;;;5090815;28;20030;-59
2021/07/24 01:28:27;;;;;;;5.25;1.00;;;19.30;65.20;;;;;;5108934;28;20128;-59
2021/07/24 01:30:55;;;;;;;1.08;0.80;;;19.40;65.30;;;;;;5091684;28;20418;-55
2021/07/24 01:33:23;;;;;;;1.27;0.90;;;19.40;65.10;;;;;;5109108;28;20550;-59
2021/07/24 01:35:52;;;;;;;1.00;0.75;;;19.50;64.90;;;;;;5090706;28;20375;-60
2021/07/24 01:38:21;;;;;;;1.52;1.00;;;19.60;61.30;;;;;;5108878;28;20040;-58
2021/07/24 01:40:51;;;;;;;1.10;0.70;;;19.70;61.80;;;;;;5108912;28;20457;-59
2021/07/24 01:43:19;;;;;;;0.95;0.63;;;19.80;62.60;;;;;;5089414;28;20039;-61
2021/07/24 01:45:47;;;;;;;1.33;0.82;;;19.70;63.10;;;;;;5108368;28;20067;-51
2021/07/24 01:48:41;;;;;;;1.23;0.70;;;19.90;62.90;;;;;;5108924;28;20027;-54
2021/07/24 01:54:02;;;;;;;0.95;0.65;;;20.00;63.20;;;;;;5109177;28;20118;-58
2021/07/24 01:56:32;;;;;;;0.60;0.55;;;20.00;61.30;;;;;;5109370;28;20427;-57
2021/07/24 01:58:59;;;;;;;0.90;0.70;;;19.90;60.90;;;;;;5109077;28;20055;-57
2021/07/24 02:01:28;;;;;;;1.30;0.63;;;19.70;60.50;;;;;;5109287;28;20024;-57
2021/07/24 02:04:13;;;;;;;2.50;0.70;;;19.40;61.80;;;;;;5109036;28;20465;-57
2021/07/24 02:06:43;;;;;;;0.40;0.40;;;19.20;64.10;;;;;;5109125;28;20478;-58
2021/07/24 02:09:10;;;;;;;1.13;0.55;;;19.10;64.70;;;;;;5108705;28;20106;-61
2021/07/24 02:11:44;;;;;;;0.60;0.50;;;19.10;65.30;;;;;;5106532;28;20067;-53
2021/07/24 02:14:12;;;;;;;10.48;1.08;;;19.20;66.10;;;;;;5105289;28;20030;-56
2021/07/24 02:16:41;;;;;;;6.82;0.80;;;19.40;65.60;;;;;;5104478;28;20150;-53
2021/07/24 02:19:10;;;;;;;0.65;0.40;;;19.40;62.90;;;;;;5104013;28;20028;-54
2021/07/24 02:21:39;;;;;;;0.60;0.60;;;19.30;62.70;;;;;;5103804;28;20027;-53
2021/07/24 02:24:06;;;;;;;2.03;0.47;;;19.30;61.20;;;;;;5104790;28;20028;-51
2021/07/24 02:26:34;;;;;;;4.22;0.40;;;19.30;60.50;;;;;;5108243;28;20026;-52
2021/07/24 02:29:01;;;;;;;0.50;0.30;;;19.40;60.40;;;;;;5107535;28;20050;-53
2021/07/24 02:31:28;;;;;;;0.60;0.50;;;19.50;60.40;;;;;;5108036;28;20042;-53
2021/07/24 02:33:59;;;;;;;0.40;0.40;;;19.60;60.40;;;;;;5105934;28;21172;-52
2021/07/24 02:36:26;;;;;;;1.10;0.77;;;19.70;59.30;;;;;;5088901;28;20020;-53
2021/07/24 02:38:53;;;;;;;0.90;0.40;;;19.70;58.00;;;;;;5107463;28;20394;-52
2021/07/24 02:41:21;;;;;;;2.90;0.35;;;19.90;58.70;;;;;;5107466;28;20035;-62
2021/07/24 02:43:48;;;;;;;0.30;0.30;;;19.70;61.20;;;;;;5107977;28;20159;-55
2021/07/24 02:46:19;;;;;;;0.50;0.30;;;19.40;61.90;;;;;;5106763;28;20552;-54
2021/07/24 02:48:50;;;;;;;1.30;0.60;;;19.40;61.80;;;;;;5107291;28;20100;-54
2021/07/24 02:51:17;;;;;;;3.88;0.60;;;19.40;62.30;;;;;;5071933;28;20062;-61
2021/07/24 02:53:45;;;;;;;3.38;0.40;;;19.20;61.10;;;;;;5099284;28;20019;-57
2021/07/24 02:56:12;;;;;;;2.75;0.25;;;19.30;62.00;;;;;;5080960;28;20488;-59
2021/07/24 02:58:40;;;;;;;0.20;0.20;;;19.30;60.80;;;;;;5091417;28;20036;-55
2021/07/24 03:01:08;;;;;;;1.85;0.25;;;19.20;60.80;;;;;;5098965;28;20082;-56
2021/07/24 03:03:36;;;;;;;0.38;0.20;;;19.20;61.70;;;;;;5094571;28;20378;-54
2021/07/24 03:06:04;;;;;;;0.28;0.28;;;19.00;62.90;;;;;;5097489;28;20055;-53
2021/07/24 03:08:31;;;;;;;0.75;0.25;;;18.90;63.40;;;;;;5080763;28;20024;-53
2021/07/24 03:10:59;;;;;;;0.90;0.38;;;18.90;64.90;;;;;;5100147;28;20023;-57
2021/07/24 03:13:26;;;;;;;0.35;0.30;;;19.00;63.70;;;;;;5076769;28;20036;-55
2021/07/24 03:15:54;;;;;;;0.85;0.32;;;19.20;63.00;;;;;;5099969;28;20031;-57
2021/07/24 03:18:22;;;;;;;1.60;0.30;;;19.30;63.80;;;;;;5098682;28;20043;-59
2021/07/24 03:20:49;;;;;;;7.25;0.35;;;19.40;62.70;;;;;;5096890;28;20028;-58
2021/07/24 03:23:16;;;;;;;0.47;0.28;;;19.60;61.50;;;;;;5092294;28;20032;-54
2021/07/24 03:25:44;;;;;;;0.82;0.22;;;19.70;62.90;;;;;;5095044;28;20060;-56
2021/07/24 03:28:11;;;;;;;1.63;0.50;;;19.90;60.70;;;;;;5093846;28;20059;-60
2021/07/24 03:30:39;;;;;;;0.65;0.20;;;20.10;61.60;;;;;;5097645;28;20040;-54
2021/07/24 03:33:06;;;;;;;0.98;0.20;;;20.20;60.40;;;;;;5095339;28;20382;-57
2021/07/24 03:35:34;;;;;;;0.85;0.30;;;20.30;58.20;;;;;;5097196;28;20040;-61
2021/07/24 03:38:05;;;;;;;2.75;0.20;;;20.30;59.90;;;;;;5093430;28;20494;-58
2021/07/24 03:40:33;;;;;;;0.93;0.35;;;20.40;58.00;;;;;;5086417;28;20439;-62
2021/07/24 03:43:00;;;;;;;0.75;0.20;;;20.40;58.90;;;;;;5086664;28;20101;-62
2021/07/24 03:45:28;;;;;;;1.60;0.30;;;20.50;58.70;;;;;;5086681;28;20028;-59
2021/07/24 03:47:55;;;;;;;1.73;0.20;;;20.50;58.30;;;;;;5086634;28;20100;-57
2021/07/24 03:50:22;;;;;;;0.40;0.20;;;20.60;58.20;;;;;;5086409;28;20040;-55
2021/07/24 03:52:50;;;;;;;0.98;0.38;;;20.50;57.50;;;;;;5068186;28;20131;-58
2021/07/24 03:55:17;;;;;;;0.40;0.25;;;20.50;58.60;;;;;;5086182;28;20207;-55
2021/07/24 03:57:45;;;;;;;1.63;0.30;;;20.60;58.60;;;;;;5085844;28;20036;-60
2021/07/24 04:00:13;;;;;;;1.15;0.30;;;20.60;59.50;;;;;;5085897;28;20077;-63
2021/07/24 04:02:42;;;;;;;0.65;0.28;;;20.60;59.60;;;;;;5067872;28;20030;-59
2021/07/24 04:05:11;;;;;;;1.23;0.30;;;20.80;58.10;;;;;;5084167;28;20028;-61
2021/07/24 04:07:39;;;;;;;0.32;0.25;;;20.70;58.70;;;;;;5091930;28;20081;-59
2021/07/24 04:10:11;;;;;;;0.25;0.17;;;20.80;57.70;;;;;;5096430;28;20036;-58
2021/07/24 04:12:42;;;;;;;0.77;0.20;;;20.90;57.50;;;;;;5099070;28;20032;-60
2021/07/24 04:15:14;;;;;;;0.22;0.20;;;20.90;57.00;;;;;;5099175;28;20503;-61
2021/07/24 04:17:42;;;;;;;0.63;0.20;;;20.80;57.80;;;;;;5073849;28;20517;-60
2021/07/24 04:20:11;;;;;;;0.10;0.10;;;20.90;58.10;;;;;;5097165;28;20093;-57
2021/07/24 04:22:38;;;;;;;0.20;0.20;;;20.80;57.70;;;;;;5097261;28;20053;-57
2021/07/24 04:25:06;;;;;;;0.40;0.32;;;20.80;57.30;;;;;;5094458;28;20085;-59
2021/07/24 04:27:34;;;;;;;0.10;0.10;;;20.80;57.80;;;;;;5096900;28;20040;-61
2021/07/24 04:30:01;;;;;;;0.50;0.20;;;20.90;57.60;;;;;;5074607;28;20050;-58
2021/07/24 04:32:29;;;;;;;0.73;0.32;;;20.90;56.80;;;;;;5093412;28;20101;-55
2021/07/24 04:34:56;;;;;;;0.85;0.20;;;20.90;57.20;;;;;;5089444;28;20024;-57
2021/07/24 04:37:23;;;;;;;0.20;0.20;;;21.00;57.10;;;;;;5094420;28;20045;-51
2021/07/24 04:39:51;;;;;;;0.65;0.20;;;21.00;56.90;;;;;;5092565;28;20024;-60
2021/07/24 04:42:18;;;;;;;6.03;0.43;;;21.00;57.40;;;;;;5094388;28;20047;-61
2021/07/24 04:44:45;;;;;;;0.15;0.10;;;21.00;55.90;;;;;;5094017;28;20573;-56
2021/07/24 04:47:13;;;;;;;0.38;0.35;;;21.00;55.70;;;;;;5093698;28;20428;-59
2021/07/24 04:49:50;;;;;;;0.52;0.30;;;21.10;53.60;;;;;;5093089;28;20077;-56
2021/07/24 04:52:19;;;;;;;1.63;0.25;;;21.20;54.10;;;;;;5097287;28;20051;-57
2021/07/24 04:54:47;;;;;;;0.75;0.50;;;21.30;54.50;;;;;;5097470;28;20500;-54
2021/07/24 04:57:17;;;;;;;1.48;0.47;;;21.30;56.00;;;;;;5094823;28;20039;-61
2021/07/24 04:59:48;;;;;;;1.25;0.20;;;21.20;57.00;;;;;;5080552;28;20110;-58
2021/07/24 05:02:17;;;;;;;0.30;0.10;;;21.20;54.50;;;;;;5101316;28;20759;-60
2021/07/24 05:04:46;;;;;;;2.33;0.28;;;21.20;56.70;;;;;;5104192;28;20122;-57
2021/07/24 05:07:16;;;;;;;0.10;0.10;;;21.20;56.30;;;;;;5104543;28;20627;-59
2021/07/24 05:09:43;;;;;;;0.10;0.10;;;21.10;55.60;;;;;;5104989;28;20031;-57
2021/07/24 05:12:11;;;;;;;2.58;0.40;;;21.10;56.30;;;;;;5105068;28;20035;-58
2021/07/24 05:14:39;;;;;;;0.55;0.30;;;21.10;54.40;;;;;;5104776;28;20073;-57
2021/07/24 05:17:08;;;;;;;1.05;0.40;;;21.20;56.10;;;;;;5105249;28;20036;-52
2021/07/24 05:19:45;;;;;;;0.93;0.22;;;21.10;56.50;;;;;;5104775;28;20084;-56
2021/07/24 05:22:14;;;;;;;0.25;0.10;;;21.10;55.60;;;;;;5105103;28;20032;-55
2021/07/24 05:24:46;;;;;;;4.22;0.20;;;21.00;54.80;;;;;;5104835;28;20032;-54
2021/07/24 05:27:14;;;;;;;0.40;0.17;;;21.00;55.40;;;;;;5104654;28;20083;-57
2021/07/24 05:29:45;;;;;;;1.08;0.20;;;21.00;56.60;;;;;;5104768;28;20035;-52
2021/07/24 05:32:13;;;;;;;0.55;0.30;;;20.90;57.00;;;;;;5104783;28;20034;-53
2021/07/24 05:34:42;;;;;;;0.40;0.17;;;20.90;53.50;;;;;;5104453;28;20031;-57
2021/07/24 05:37:09;;;;;;;0.80;0.10;;;21.00;56.30;;;;;;5104494;28;20492;-48
2021/07/24 05:39:36;;;;;;;3.30;0.20;;;21.00;53.70;;;;;;5086523;28;20504;-58
2021/07/24 05:42:04;;;;;;;1.33;0.20;;;20.90;56.40;;;;;;5103936;28;20084;-52
2021/07/24 05:44:31;;;;;;;0.47;0.05;;;20.90;55.40;;;;;;5104799;28;20042;-56
2021/07/24 05:47:01;;;;;;;0.65;0.38;;;20.80;55.20;;;;;;5104447;28;20106;-62
2021/07/24 05:49:29;;;;;;;0.60;0.20;;;20.70;55.90;;;;;;5104601;28;20035;-58
2021/07/24 05:51:56;;;;;;;0.38;0.20;;;20.60;54.20;;;;;;5104860;28;20031;-52
2021/07/24 05:54:25;;;;;;;0.10;0.10;;;20.60;55.60;;;;;;5104541;28;20023;-60
2021/07/24 05:56:52;;;;;;;0.30;0.20;;;20.40;56.10;;;;;;5104241;28;20032;-57
2021/07/24 05:59:20;;;;;;;0.38;0.20;;;20.20;56.20;;;;;;5105307;28;20141;-61
2021/07/24 06:01:47;;;;;;;0.50;0.35;;;20.10;54.80;;;;;;5108371;28;20034;-57
2021/07/24 06:04:14;;;;;;;0.20;0.20;;;19.90;56.40;;;;;;5108511;28;20114;-57
2021/07/24 06:06:42;;;;;;;0.20;0.20;;;19.60;56.30;;;;;;5107784;28;20028;-58
2021/07/24 06:09:09;;;;;;;0.00;0.00;;;19.50;57.20;;;;;;5108043;28;20731;-55
2021/07/24 06:11:36;;;;;;;0.65;0.20;;;19.30;57.40;;;;;;5108145;28;20032;-58
2021/07/24 06:14:04;;;;;;;0.73;0.22;;;19.10;58.20;;;;;;5108034;28;20030;-54
2021/07/24 06:16:33;;;;;;;0.38;0.17;;;18.90;59.00;;;;;;5108465;28;20042;-51
2021/07/24 06:19:01;;;;;;;0.38;0.13;;;18.70;59.70;;;;;;5108934;28;20019;-59
2021/07/24 06:21:28;;;;;;;0.32;0.20;;;18.60;60.40;;;;;;5108143;28;20035;-56
2021/07/24 06:23:56;;;;;;;0.20;0.20;;;18.40;60.00;;;;;;5107449;28;20038;-53
2021/07/24 06:26:23;;;;;;;1.38;0.15;;;18.30;62.00;;;;;;5108274;28;20012;-59
2021/07/24 06:28:50;;;;;;;4.75;0.45;;;18.20;62.30;;;;;;5107634;28;20043;-56
2021/07/24 06:31:18;;;;;;;0.20;0.10;;;18.10;62.20;;;;;;5108198;28;20028;-55
2021/07/24 06:33:45;;;;;;;0.10;0.10;;;18.00;62.20;;;;;;5105112;28;20115;-57
2021/07/24 06:36:14;;;;;;;0.25;0.13;;;18.00;62.80;;;;;;5090844;28;20043;-52
2021/07/24 06:38:41;;;;;;;1.55;0.28;;;17.90;63.30;;;;;;5099046;28;20036;-58
2021/07/24 06:41:08;;;;;;;0.38;0.22;;;17.80;63.20;;;;;;5099338;28;20055;-58
2021/07/24 06:43:36;;;;;;;0.52;0.10;;;17.80;63.40;;;;;;5096027;28;20516;-59
2021/07/24 06:46:13;;;;;;;0.30;0.20;;;17.70;63.80;;;;;;5092154;28;20027;-58
2021/07/24 06:48:41;;;;;;;1.00;0.30;;;17.60;63.50;;;;;;5097984;28;20076;-53
2021/07/24 06:51:09;;;;;;;0.10;0.10;;;17.60;63.70;;;;;;5094300;28;20601;-53
2021/07/24 06:53:36;;;;;;;0.20;0.17;;;17.50;64.30;;;;;;5092382;28;20034;-56
2021/07/24 06:56:04;;;;;;;0.20;0.20;;;17.50;64.60;;;;;;5098842;28;20035;-60
2021/07/24 06:58:33;;;;;;;1.17;0.40;;;17.30;64.40;;;;;;5093869;28;20051;-60
2021/07/24 07:01:00;;;;;;;0.43;0.20;;;17.30;65.30;;;;;;5096020;28;20031;-61
2021/07/24 07:03:27;;;;;;;0.43;0.20;;;17.20;65.60;;;;;;5079951;28;20531;-59
2021/07/24 07:05:55;;;;;;;0.30;0.20;;;17.20;65.40;;;;;;5093766;28;20043;-56
2021/07/24 07:08:23;;;;;;;14.40;0.40;;;17.10;65.20;;;;;;5093061;28;20031;-54
2021/07/24 07:10:51;;;;;;;0.85;0.30;;;17.10;65.40;;;;;;5099417;28;20057;-55
2021/07/24 07:13:18;;;;;;;0.35;0.30;;;17.00;65.70;;;;;;5094216;28;20023;-57
2021/07/24 07:15:46;;;;;;;0.73;0.30;;;17.00;66.00;;;;;;5094305;28;20670;-58
2021/07/24 07:18:13;;;;;;;0.47;0.30;;;17.00;66.10;;;;;;5097532;28;20039;-53
2021/07/24 07:20:40;;;;;;;1.13;0.52;;;17.00;66.60;;;;;;5094432;28;20505;-55
2021/07/24 07:23:08;;;;;;;0.77;0.52;;;16.90;66.30;;;;;;5088786;28;20032;-56
2021/07/24 07:25:37;;;;;;;1.90;0.63;;;16.90;67.10;;;;;;5091668;28;20116;-55
2021/07/24 07:28:04;;;;;;;1.23;0.85;;;16.90;67.20;;;;;;5096578;28;20501;-56
2021/07/24 07:30:32;;;;;;;2.53;0.90;;;16.80;67.10;;;;;;5095121;28;20032;-54
2021/07/24 07:32:59;;;;;;;2.13;0.90;;;16.90;67.10;;;;;;5101249;28;20794;-55
2021/07/24 07:35:29;;;;;;;1.52;0.82;;;16.80;67.00;;;;;;5099059;28;20076;-51
2021/07/24 07:37:56;;;;;;;1.35;0.95;;;16.80;67.30;;;;;;5096487;28;20553;-55
2021/07/24 07:40:24;;;;;;;2.15;1.23;;;16.70;67.50;;;;;;5098278;28;20031;-54
2021/07/24 07:42:51;;;;;;;1.80;1.35;;;16.80;67.40;;;;;;5101153;28;20509;-53
2021/07/24 07:45:19;;;;;;;1.65;1.30;;;16.70;67.60;;;;;;5103072;28;20031;-62
2021/07/24 07:47:49;;;;;;;1.45;1.05;;;16.70;67.40;;;;;;5099954;28;20059;-55
2021/07/24 07:50:16;;;;;;;2.70;1.58;;;16.60;67.60;;;;;;5102574;28;20512;-56
2021/07/24 07:52:43;;;;;;;2.70;1.63;;;16.60;67.90;;;;;;5103187;28;20046;-57
2021/07/24 07:55:11;;;;;;;3.53;1.88;;;16.60;67.90;;;;;;5103568;28;20020;-53
2021/07/24 07:57:40;;;;;;;3.60;1.95;;;16.60;68.10;;;;;;5082413;28;20055;-50
2021/07/24 08:00:12;;;;;;;3.78;2.08;;;16.50;67.90;;;;;;5099664;28;20569;-64
2021/07/24 08:02:39;;;;;;;4.68;2.15;;;16.50;68.50;;;;;;5099849;28;20087;-58
2021/07/24 08:05:07;;;;;;;5.25;2.33;;;16.50;68.40;;;;;;5101467;28;20038;-63
2021/07/24 08:07:35;;;;;;;3.72;2.72;;;16.50;68.90;;;;;;5102334;28;20015;-63
2021/07/24 08:10:03;;;;;;;3.45;2.33;;;16.40;68.90;;;;;;5100745;28;20035;-61
2021/07/24 08:12:30;;;;;;;3.40;1.95;;;16.40;68.50;;;;;;5101495;28;20486;-61
2021/07/24 08:14:58;;;;;;;3.95;2.10;;;16.40;68.20;;;;;;5102550;28;20024;-59
2021/07/24 08:17:25;;;;;;;2.92;1.73;;;16.40;68.20;;;;;;5102970;28;20046;-58
2021/07/24 08:19:52;;;;;;;2.80;1.63;;;16.30;67.50;;;;;;5099066;28;20510;-60
2021/07/24 08:22:23;;;;;;;4.30;2.03;;;16.30;67.50;;;;;;5101715;28;20031;-53
2021/07/24 08:24:53;;;;;;;2.08;1.48;;;16.30;66.90;;;;;;5079570;28;20023;-55
2021/07/24 08:27:21;;;;;;;3.33;1.85;;;16.20;67.30;;;;;;5095774;28;20044;-60
2021/07/24 08:29:48;;;;;;;2.80;1.50;;;16.20;67.30;;;;;;5093869;28;20027;-59
2021/07/24 08:32:15;;;;;;;4.78;1.65;;;16.20;67.70;;;;;;5100801;28;20436;-61
2021/07/24 08:34:42;;;;;;;2.03;1.48;;;16.20;67.60;;;;;;5096399;28;20024;-61
2021/07/24 08:37:10;;;;;;;2.53;1.58;;;16.20;67.20;;;;;;5092150;28;20032;-59
2021/07/24 08:39:38;;;;;;;4.22;1.52;;;16.20;66.80;;;;;;5093247;28;20074;-60
2021/07/24 08:42:07;;;;;;;2.25;1.50;;;16.20;66.90;;;;;;5096355;28;20475;-55
2021/07/24 08:44:38;;;;;;;1.98;1.27;;;16.20;66.90;;;;;;5093906;28;20067;-58
2021/07/24 08:47:05;;;;;;;4.10;1.40;;;16.20;66.70;;;;;;5098959;28;20035;-60
2021/07/24 08:49:33;;;;;;;4.03;1.15;;;16.20;66.60;;;;;;5071718;28;20486;-63
2021/07/24 08:52:01;;;;;;;3.45;1.33;;;16.20;66.30;;;;;;5093246;28;20031;-62
2021/07/24 08:54:29;;;;;;;1.48;1.13;;;16.20;66.50;;;;;;5093157;28;20501;-63
2021/07/24 08:56:57;;;;;;;1.50;1.27;;;16.20;66.00;;;;;;5092491;28;20526;-60
2021/07/24 08:59:25;;;;;;;3.47;1.33;;;16.20;65.90;;;;;;5071197;28;20039;-64
2021/07/24 09:01:54;;;;;;;1.88;1.13;;;16.20;65.90;;;;;;5092188;28;20141;-61
2021/07/24 09:04:22;;;;;;;2.15;1.23;;;16.10;65.90;;;;;;5091806;28;20123;-59
2021/07/24 09:06:58;;;;;;;1.52;1.20;;;16.10;65.80;;;;;;5090220;28;20885;-61
2021/07/24 09:09:27;;;;;;;2.90;1.25;;;16.10;66.10;;;;;;5088648;28;20631;-60
2021/07/24 09:11:54;;;;;;;1.42;1.00;;;16.10;65.90;;;;;;5093600;28;20019;-57
2021/07/24 09:14:22;;;;;;;2.20;1.17;;;16.10;65.80;;;;;;5097168;28;20449;-60
2021/07/24 09:16:50;;;;;;;1.45;1.10;;;16.10;65.50;;;;;;5096740;28;20046;-57
2021/07/24 09:19:18;;;;;;;1.98;1.08;;;16.10;65.30;;;;;;5095431;28;20040;-60
2021/07/24 09:21:46;;;;;;;2.22;1.10;;;16.00;65.10;;;;;;5093390;28;20035;-59
2021/07/24 09:24:24;;;;;;;1.50;1.20;;;16.00;65.30;;;;;;5090645;28;20039;-59
2021/07/24 09:26:51;;;;;;;1.77;1.13;;;16.00;65.80;;;;;;5099712;28;20024;-59
2021/07/24 09:29:20;;;;;;;1.85;1.15;;;16.00;65.70;;;;;;5094683;28;20119;-61
2021/07/24 09:31:49;;;;;;;2.20;1.27;;;16.00;65.60;;;;;;5103291;28;20031;-62
2021/07/24 09:34:16;;;;;;;1.45;0.85;;;16.00;65.70;;;;;;5096639;28;20050;-58
2021/07/24 09:36:47;;;;;;;1.35;1.05;;;16.00;65.60;;;;;;5102866;28;20033;-53
2021/07/24 09:39:16;;;;;;;1.40;1.05;;;15.90;65.60;;;;;;5094432;28;20756;-58
2021/07/24 09:41:47;;;;;;;2.10;1.30;;;15.90;65.80;;;;;;5093574;28;20047;-55
2021/07/24 09:44:36;;;;;;;2.20;1.58;;;15.90;65.80;;;;;;5100023;28;20101;-61
2021/07/24 09:47:05;;;;;;;1.60;1.13;;;15.90;65.60;;;;;;5102153;28;20028;-58
2021/07/24 09:49:41;;;;;;;1.95;1.27;;;15.90;65.90;;;;;;5098588;28;20435;-53
2021/07/24 09:52:15;;;;;;;1.10;1.00;;;15.90;65.90;;;;;;5087254;28;20100;-61
2021/07/24 09:54:43;;;;;;;1.83;1.25;;;15.90;65.90;;;;;;5106742;28;20020;-60
2021/07/24 09:57:30;;;;;;;1.55;1.20;;;15.80;65.80;;;;;;5105068;28;20040;-60
2021/07/24 10:00:18;;;;;;;0.98;0.73;;;15.80;65.90;;;;;;5098077;28;20031;-61
2021/07/24 10:02:46;;;;;;;3.03;0.65;;;15.80;65.80;;;;;;5102025;28;20020;-56
2021/07/24 10:05:14;;;;;;;1.40;1.13;;;15.80;65.50;;;;;;5096506;28;20383;-59
2021/07/24 10:07:42;;;;;;;0.80;0.80;;;15.80;65.80;;;;;;5099221;28;20028;-56
2021/07/24 10:10:10;;;;;;;1.00;0.82;;;15.80;65.60;;;;;;5097258;28;20031;-59
2021/07/24 10:12:38;;;;;;;1.33;1.00;;;15.80;65.50;;;;;;5103551;28;20031;-52
2021/07/24 10:15:09;;;;;;;1.73;0.98;;;15.70;65.90;;;;;;5100610;28;20441;-51
2021/07/24 10:17:36;;;;;;;1.10;0.83;;;15.70;65.90;;;;;;5096308;28;20053;-51
2021/07/24 10:20:05;;;;;;;1.55;1.13;;;15.70;65.80;;;;;;5096798;28;20085;-61
2021/07/24 10:22:33;;;;;;;1.52;1.00;;;15.70;65.50;;;;;;5102993;28;20616;-62
2021/07/24 10:25:00;;;;;;;1.85;0.80;;;15.70;65.80;;;;;;5100262;28;20115;-54
2021/07/24 10:27:36;;;;;;;1.17;0.88;;;15.70;65.60;;;;;;5097243;28;20566;-53
2021/07/24 10:30:06;;;;;;;0.82;0.80;;;15.70;65.30;;;;;;5099516;28;20063;-54
2021/07/24 10:32:39;;;;;;;1.80;1.17;;;15.70;66.20;;;;;;5096290;28;20017;-59
2021/07/24 10:35:07;;;;;;;1.02;0.75;;;15.60;65.30;;;;;;5101671;28;20028;-60
2021/07/24 10:37:39;;;;;;;3.40;0.93;;;15.60;65.60;;;;;;5095391;28;20511;-53
2021/07/24 10:40:23;;;;;;;1.58;1.15;;;15.60;65.60;;;;;;5098994;28;20208;-62
2021/07/24 10:42:55;;;;;;;1.38;1.13;;;15.60;65.70;;;;;;5097899;28;20027;-64
2021/07/24 10:45:37;;;;;;;1.10;0.90;;;15.60;65.70;;;;;;5099514;28;20783;-60
2021/07/24 10:48:13;;;;;;;1.30;0.90;;;15.60;65.80;;;;;;5095919;28;20036;-62
2021/07/24 10:51:00;;;;;;;2.45;1.00;;;15.60;65.90;;;;;;5102288;28;20486;-53
2021/07/24 10:53:48;;;;;;;1.02;0.80;;;15.60;65.60;;;;;;5104950;28;20765;-57
2021/07/24 10:56:42;;;;;;;0.90;0.80;;;15.60;65.50;;;;;;5104512;28;20039;-60
2021/07/24 10:59:41;;;;;;;1.20;0.90;;;15.60;65.60;;;;;;5098469;28;20126;-57
2021/07/24 11:02:10;;;;;;;3.08;1.10;;;15.60;65.60;;;;;;5092605;28;20039;-60
2021/07/24 11:04:37;;;;;;;1.15;0.88;;;15.60;65.60;;;;;;5101692;28;20042;-59
2021/07/24 11:07:14;;;;;;;1.95;1.25;;;15.60;65.40;;;;;;5096465;28;20027;-56
2021/07/24 11:09:46;;;;;;;1.35;0.90;;;15.60;65.50;;;;;;5102581;28;20248;-52
2021/07/24 11:12:14;;;;;;;0.60;0.60;;;15.60;65.30;;;;;;5098641;28;20038;-56
2021/07/24 11:14:42;;;;;;;1.65;1.08;;;15.50;65.40;;;;;;5100101;28;20053;-58
2021/07/24 11:17:13;;;;;;;1.40;0.90;;;15.50;65.50;;;;;;5103050;28;20416;-61
2021/07/24 11:19:56;;;;;;;2.77;0.80;;;15.50;65.70;;;;;;5093832;28;20106;-57
2021/07/24 11:22:31;;;;;;;4.38;1.00;;;15.50;65.40;;;;;;5099987;28;20260;-59
2021/07/24 11:24:58;;;;;;;1.17;0.77;;;15.50;65.30;;;;;;5100641;28;20044;-58
2021/07/24 11:27:29;;;;;;;1.65;1.13;;;15.50;65.00;;;;;;4989638;28;2565495;-58
2021/07/24 11:30:22;;;;;;;1.33;0.90;;;15.50;65.20;;;;;;5078354;28;20032;-63
2021/07/24 11:32:56;;;;;;;2.03;1.08;;;15.50;65.20;;;;;;5096693;28;20031;-61
2021/07/24 11:35:28;;;;;;;1.65;1.00;;;15.50;65.10;;;;;;5104927;28;20036;-60
2021/07/24 11:37:57;;;;;;;1.27;0.82;;;15.40;65.10;;;;;;5097074;28;20090;-53
2021/07/24 11:40:29;;;;;;;1.75;1.00;;;15.40;64.90;;;;;;5105898;28;20023;-54
2021/07/24 11:43:01;;;;;;;3.53;0.88;;;15.40;65.10;;;;;;5108266;28;20059;-60
2021/07/24 11:45:31;;;;;;;1.02;0.70;;;15.40;65.00;;;;;;5108110;28;20023;-59
2021/07/24 11:48:18;;;;;;;1.75;0.95;;;15.40;65.10;;;;;;5104286;28;20032;-54
2021/07/24 11:50:51;;;;;;;0.80;0.80;;;15.40;65.30;;;;;;5103263;28;20032;-63
2021/07/24 11:53:21;;;;;;;2.00;1.48;;;15.40;65.20;;;;;;5103804;28;20039;-59
2021/07/24 11:55:49;;;;;;;1.05;0.88;;;15.40;65.20;;;;;;5099586;28;20546;-58
2021/07/24 11:58:17;;;;;;;1.45;1.10;;;15.40;65.40;;;;;;5096634;28;20063;-60
2021/07/24 12:00:46;;;;;;;0.68;0.68;;;15.40;65.40;;;;;;5098774;28;20063;-58
2021/07/24 12:03:22;;;;;;;1.13;0.77;;;15.30;65.40;;;;;;5105092;28;20039;-55
2021/07/24 12:06:02;;;;;;;0.85;0.65;;;15.30;65.10;;;;;;5097855;28;20027;-58
2021/07/24 12:08:31;;;;;;;1.10;0.65;;;15.40;65.60;;;;;;5101103;28;20051;-59
2021/07/24 12:10:59;;;;;;;1.40;1.25;;;15.30;65.80;;;;;;5101920;28;20070;-53
2021/07/24 12:13:28;;;;;;;1.30;0.75;;;15.40;65.80;;;;;;5102155;28;20024;-51
2021/07/24 12:16:01;;;;;;;1.70;0.73;;;15.30;65.40;;;;;;5102728;28;20178;-60
2021/07/24 12:18:36;;;;;;;0.70;0.70;;;15.30;65.50;;;;;;5089641;28;20047;-56
2021/07/24 12:21:08;;;;;;;1.40;0.65;;;15.30;65.70;;;;;;5095365;28;20020;-57
2021/07/24 12:23:42;;;;;;;0.80;0.60;;;15.30;65.70;;;;;;5095339;28;20035;-59
2021/07/24 12:26:21;;;;;;;1.20;0.73;;;15.30;65.70;;;;;;5096873;28;20032;-60
2021/07/24 12:28:57;;;;;;;0.65;0.60;;;15.30;65.70;;;;;;5090641;28;20054;-53
2021/07/24 12:31:26;;;;;;;0.90;0.70;;;15.30;65.60;;;;;;5078773;28;20062;-58
2021/07/24 12:34:02;;;;;;;1.15;0.65;;;15.30;65.60;;;;;;5096328;28;20046;-58
2021/07/24 12:36:30;;;;;;;1.00;0.63;;;15.30;65.80;;;;;;5091862;28;20502;-60
2021/07/24 12:38:58;;;;;;;2.80;0.75;;;15.30;65.80;;;;;;5087932;28;20048;-59
2021/07/24 12:41:36;;;;;;;0.52;0.50;;;15.30;65.70;;;;;;5050441;28;20032;-59
2021/07/24 12:44:05;;;;;;;0.60;0.60;;;15.30;65.80;;;;;;5085126;28;20084;-59
2021/07/24 12:46:37;;;;;;;0.88;0.57;;;15.30;65.80;;;;;;5085187;28;20629;-60
2021/07/24 12:49:08;;;;;;;0.77;0.68;;;15.20;65.80;;;;;;5085523;28;20024;-59
2021/07/24 12:51:41;;;;;;;1.58;0.80;;;15.30;65.80;;;;;;5086127;28;20047;-62
2021/07/24 12:54:18;;;;;;;0.95;0.65;;;15.20;65.90;;;;;;5085944;28;20024;-52
2021/07/24 12:56:49;;;;;;;0.73;0.68;;;15.20;66.00;;;;;;5086435;28;21135;-59
2021/07/24 12:59:17;;;;;;;1.42;0.85;;;15.20;65.80;;;;;;5085090;28;20059;-59
2021/07/24 13:01:53;;;;;;;1.02;0.70;;;15.20;65.80;;;;;;5084708;28;20073;-62